Time;durP1;ratioP1;P1;durP2;ratioP2;P2;SDS_P1;SDS_P2;PMS_P1;PMS_P2;Temp;Humidity;BMP_temperature;BMP_pressure;BME280_temperature;BME280_humidity;BME280_pressure;Samples;Min_cycle;Max_cycle;Signal;HPM_P1;HPM_P2
2022/10/24 00:02:13;;;;;;;25.63;15.83;;;;;;;-144.59;100.00;63158.22;4878825;29;20296;-86
2022/10/24 00:04:44;;;;;;;22.70;15.00;;;;;;;-144.59;100.00;63158.22;4865423;29;20206;-84
2022/10/24 00:07:14;;;;;;;21.13;15.73;;;;;;;-144.59;100.00;63158.22;4892715;29;20194;-84
2022/10/24 00:09:46;;;;;;;20.87;14.80;;;;;;;-144.59;100.00;63158.22;4913254;28;20240;-84
2022/10/24 00:12:19;;;;;;;23.67;15.50;;;;;;;-144.59;100.00;63158.22;4965823;28;20262;-84
2022/10/24 00:14:49;;;;;;;22.97;14.30;;;;;;;-144.59;100.00;63158.22;4961023;28;20230;-85
2022/10/24 00:17:18;;;;;;;22.60;15.20;;;;;;;-144.59;100.00;63158.22;4969969;28;20203;-85
2022/10/24 00:19:47;;;;;;;18.63;14.47;;;;;;;-144.59;100.00;63158.22;5004583;28;20226;-84
2022/10/24 00:22:18;;;;;;;20.30;13.57;;;;;;;-144.59;100.00;63158.22;4986325;28;20201;-84
2022/10/24 00:24:53;;;;;;;19.23;13.73;;;;;;;-144.59;100.00;63158.22;4989004;28;20203;-85
2022/10/24 00:27:25;;;;;;;28.77;13.20;;;;;;;-144.59;100.00;63158.22;4996109;28;20199;-84
2022/10/24 00:29:57;;;;;;;25.00;14.53;;;;;;;-144.59;100.00;63158.22;4997414;28;20214;-84
2022/10/24 00:32:28;;;;;;;20.00;14.10;;;;;;;-144.59;100.00;63158.22;5001318;28;20259;-85
2022/10/24 00:35:01;;;;;;;22.33;13.43;;;;;;;-144.59;100.00;63158.22;4992961;28;20258;-84
2022/10/24 00:37:31;;;;;;;19.63;12.37;;;;;;;-144.59;100.00;63158.22;4989510;28;20199;-84
2022/10/24 00:40:04;;;;;;;17.17;13.43;;;;;;;-144.59;100.00;63158.22;4946283;28;20196;-84
2022/10/24 00:42:36;;;;;;;22.70;13.97;;;;;;;-144.59;100.00;63158.22;4983548;28;20743;-84
2022/10/24 00:45:48;;;;;;;25.30;12.53;;;;;;;-144.59;100.00;63158.22;5026363;28;20220;-84
2022/10/24 00:48:25;;;;;;;23.23;13.33;;;;;;;-144.59;100.00;63158.22;5028221;28;20202;-84
2022/10/24 00:51:01;;;;;;;19.63;12.40;;;;;;;-144.59;100.00;63158.22;5027205;28;20194;-84
2022/10/24 00:53:34;;;;;;;23.30;12.87;;;;;;;-144.59;100.00;63158.22;4932658;29;20308;-85
2022/10/24 00:56:08;;;;;;;22.53;12.20;;;;;;;-144.59;100.00;63158.22;4934672;29;20375;-85
2022/10/24 00:58:42;;;;;;;21.57;12.67;;;;;;;-144.59;100.00;63158.22;4963716;28;20197;-85
2022/10/24 01:01:12;;;;;;;16.90;11.97;;;;;;;-144.59;100.00;63158.22;4990438;28;20191;-85
2022/10/24 01:03:41;;;;;;;19.20;11.67;;;;;;;-144.59;100.00;63158.22;4991676;28;20231;-84
2022/10/24 01:06:31;;;;;;;17.70;11.67;;;;;;;-144.59;100.00;63158.22;4991608;28;20230;-84
2022/10/24 01:09:17;;;;;;;21.70;11.73;;;;;;;-144.59;100.00;63158.22;4933829;29;20209;-84
2022/10/24 01:12:00;;;;;;;23.30;12.40;;;;;;;-144.59;100.00;63158.22;4968436;28;20603;-85
2022/10/24 01:14:43;;;;;;;18.57;11.07;;;;;;;-144.59;100.00;63158.22;4933570;29;20693;-84
2022/10/24 01:17:27;;;;;;;22.53;11.73;;;;;;;-144.59;100.00;63158.22;4934067;29;20264;-84
2022/10/24 01:20:45;;;;;;;20.13;11.23;;;;;;;-144.59;100.00;63158.22;4930490;29;20204;-85
2022/10/24 01:24:03;;;;;;;18.47;11.77;;;;;;;-144.59;100.00;63158.22;4919681;29;20212;-84
2022/10/24 01:26:57;;;;;;;22.57;11.97;;;;;;;-144.59;100.00;63158.22;4846550;29;20203;-85
2022/10/24 01:30:01;;;;;;;20.93;11.50;;;;;;;-144.59;100.00;63158.22;4840247;29;20247;-85
2022/10/24 01:32:50;;;;;;;16.80;11.90;;;;;;;-144.59;100.00;63158.22;4837781;29;20208;-84
2022/10/24 01:35:29;;;;;;;17.47;11.23;;;;;;;-144.59;100.00;63158.22;4866553;29;20229;-85
2022/10/24 01:38:12;;;;;;;20.33;11.77;;;;;;;-144.59;100.00;63158.22;4881234;28;20226;-85
2022/10/24 01:40:49;;;;;;;19.23;11.57;;;;;;;-144.59;100.00;63158.22;4946201;28;20192;-84
2022/10/24 01:43:23;;;;;;;21.13;11.70;;;;;;;-144.59;100.00;63158.22;4966591;28;20203;-85
2022/10/24 01:45:58;;;;;;;18.63;12.33;;;;;;;-144.59;100.00;63158.22;4980551;28;20203;-85
2022/10/24 01:48:38;;;;;;;17.90;11.60;;;;;;;-144.59;100.00;63158.22;5014037;28;20664;-84
2022/10/24 01:51:13;;;;;;;20.00;12.23;;;;;;;-144.59;100.00;63158.22;5046929;28;20193;-84
2022/10/24 01:53:44;;;;;;;14.90;10.73;;;;;;;-144.59;100.00;63158.22;5044721;28;20388;-84
2022/10/24 01:56:13;;;;;;;14.43;9.57;;;;;;;-144.59;100.00;63158.22;5042846;28;20259;-85
2022/10/24 01:58:43;;;;;;;14.83;9.90;;;;;;;-144.59;100.00;63158.22;5041075;28;20201;-84
2022/10/24 02:01:25;;;;;;;20.00;10.17;;;;;;;-144.59;100.00;63158.22;4988731;28;20197;-84
2022/10/24 02:04:05;;;;;;;18.83;10.27;;;;;;;-144.59;100.00;63158.22;4983306;28;20199;-85
2022/10/24 02:06:42;;;;;;;17.37;9.80;;;;;;;-144.59;100.00;63158.22;4985881;28;20214;-84
2022/10/24 02:09:20;;;;;;;16.90;8.93;;;;;;;-144.59;100.00;63158.22;4982183;28;20242;-84
2022/10/24 02:12:06;;;;;;;15.20;9.73;;;;;;;-144.59;100.00;63158.22;4985791;28;20191;-85
2022/10/24 02:14:42;;;;;;;19.90;9.07;;;;;;;-144.59;100.00;63158.22;5009478;28;20217;-84
2022/10/24 02:17:11;;;;;;;16.83;9.27;;;;;;;-144.59;100.00;63158.22;5004980;28;20229;-84
2022/10/24 02:19:49;;;;;;;16.63;9.00;;;;;;;-144.59;100.00;63158.22;4953225;28;20247;-84
2022/10/24 02:22:31;;;;;;;14.80;8.43;;;;;;;-144.59;100.00;63158.22;4987110;28;20195;-84
2022/10/24 02:25:10;;;;;;;11.80;8.57;;;;;;;-144.59;100.00;63158.22;4933441;29;20200;-84
2022/10/24 02:27:42;;;;;;;13.80;9.07;;;;;;;-144.59;100.00;63158.22;4944736;29;20208;-84
2022/10/24 02:30:15;;;;;;;12.87;8.40;;;;;;;-144.59;100.00;63158.22;4858046;29;20283;-84
2022/10/24 02:32:49;;;;;;;14.77;8.20;;;;;;;-144.59;100.00;63158.22;4856082;29;20256;-84
2022/10/24 02:35:27;;;;;;;13.77;7.73;;;;;;;-144.59;100.00;63158.22;4839721;29;20232;-84
2022/10/24 02:38:03;;;;;;;13.17;6.83;;;;;;;-144.59;100.00;63158.22;4836921;29;20204;-84
2022/10/24 02:40:35;;;;;;;14.33;7.10;;;;;;;-144.59;100.00;63158.22;4835887;29;20200;-85
2022/10/24 02:43:06;;;;;;;17.60;7.53;;;;;;;-144.59;100.00;63158.22;4767579;30;20226;-85
2022/10/24 02:45:42;;;;;;;15.00;7.27;;;;;;;-144.59;100.00;63158.22;4697222;30;20248;-84
2022/10/24 02:48:14;;;;;;;11.60;6.83;;;;;;;-144.59;100.00;63158.22;4706671;30;20216;-84
2022/10/24 02:50:49;;;;;;;16.67;6.63;;;;;;;-144.59;100.00;63158.22;4762695;30;20260;-84
2022/10/24 02:53:21;;;;;;;20.10;7.10;;;;;;;-144.59;100.00;63158.22;4755084;30;20211;-84
2022/10/24 02:55:52;;;;;;;12.67;6.23;;;;;;;-144.59;100.00;63158.22;4780408;29;20227;-84
2022/10/24 02:58:21;;;;;;;15.10;5.77;;;;;;;-144.59;100.00;63158.22;4784952;29;20222;-84
2022/10/24 03:00:59;;;;;;;13.33;5.77;;;;;;;-144.59;100.00;63158.22;4803904;29;20207;-84
2022/10/24 03:03:33;;;;;;;16.03;5.73;;;;;;;-144.59;100.00;63158.22;4855710;29;20246;-84
2022/10/24 03:06:05;;;;;;;10.57;5.07;;;;;;;-144.59;100.00;63158.22;4898940;29;20249;-84
2022/10/24 03:08:39;;;;;;;11.07;5.10;;;;;;;-144.59;100.00;63158.22;4939590;28;20203;-84
2022/10/24 03:11:09;;;;;;;11.60;5.63;;;;;;;-144.59;100.00;63158.22;4936346;29;20201;-84
2022/10/24 03:13:38;;;;;;;13.00;5.50;;;;;;;-144.59;100.00;63158.22;4927105;29;20256;-84
2022/10/24 03:16:08;;;;;;;10.27;5.00;;;;;;;-144.59;100.00;63158.22;4937230;29;20235;-84
2022/10/24 03:18:42;;;;;;;17.07;5.80;;;;;;;-144.59;100.00;63158.22;4947796;28;20219;-84
2022/10/24 03:21:14;;;;;;;14.33;5.13;;;;;;;-144.59;100.00;63158.22;4874913;29;20276;-84
2022/10/24 03:23:43;;;;;;;12.50;5.07;;;;;;;-144.59;100.00;63158.22;4876858;29;20672;-84
2022/10/24 03:26:15;;;;;;;12.03;4.80;;;;;;;-144.59;100.00;63158.22;4877499;29;20214;-84
2022/10/24 03:28:45;;;;;;;10.47;4.73;;;;;;;-144.59;100.00;63158.22;4913112;29;20206;-84
2022/10/24 03:31:18;;;;;;;17.50;5.20;;;;;;;-144.59;100.00;63158.22;4913316;29;20221;-84
2022/10/24 03:33:53;;;;;;;14.97;5.37;;;;;;;-144.59;100.00;63158.22;4916219;29;20264;-84
2022/10/24 03:36:26;;;;;;;14.47;4.83;;;;;;;-144.59;100.00;63158.22;4911611;29;20269;-84
2022/10/24 03:38:57;;;;;;;12.73;4.80;;;;;;;-144.59;100.00;63158.22;4927149;29;20255;-84
2022/10/24 03:41:28;;;;;;;10.47;4.37;;;;;;;-144.59;100.00;63158.22;4949787;28;20687;-83
2022/10/24 03:43:58;;;;;;;15.10;5.27;;;;;;;-144.59;100.00;63158.22;4956897;28;20208;-85
2022/10/24 03:46:27;;;;;;;11.77;4.70;;;;;;;-144.59;100.00;63158.22;4924439;29;20197;-84
2022/10/24 03:49:02;;;;;;;17.17;5.07;;;;;;;-144.59;100.00;63158.22;4959762;28;20202;-84
2022/10/24 03:51:39;;;;;;;18.20;5.43;;;;;;;-144.59;100.00;63158.22;4968881;28;20194;-84
2022/10/24 03:54:14;;;;;;;12.80;5.20;;;;;;;-144.59;100.00;63158.22;5003304;28;20194;-84
2022/10/24 03:56:48;;;;;;;13.80;4.70;;;;;;;-144.59;100.00;63158.22;5006929;28;20210;-84
2022/10/24 03:59:17;;;;;;;12.50;4.90;;;;;;;-144.59;100.00;63158.22;4932848;29;20197;-84
2022/10/24 04:01:46;;;;;;;12.43;4.63;;;;;;;-144.59;100.00;63158.22;4931881;29;20201;-83
2022/10/24 04:04:16;;;;;;;17.03;5.10;;;;;;;-144.59;100.00;63158.22;4942595;28;20214;-83
2022/10/24 04:06:48;;;;;;;15.57;4.93;;;;;;;-144.59;100.00;63158.22;4966521;28;20199;-84
2022/10/24 04:09:17;;;;;;;13.53;4.90;;;;;;;-144.59;100.00;63158.22;4929045;29;20333;-84
2022/10/24 04:11:45;;;;;;;11.90;4.90;;;;;;;-144.59;100.00;63158.22;4932528;29;20201;-84
2022/10/24 04:14:14;;;;;;;13.90;5.10;;;;;;;-144.59;100.00;63158.22;4931310;29;20208;-84
2022/10/24 04:16:42;;;;;;;15.83;4.90;;;;;;;-144.59;100.00;63158.22;4945937;28;20222;-84
2022/10/24 04:19:11;;;;;;;14.03;4.97;;;;;;;-144.59;100.00;63158.22;5038540;28;20232;-84
2022/10/24 04:21:40;;;;;;;14.77;4.73;;;;;;;-144.59;100.00;63158.22;5044158;28;20193;-85
2022/10/24 04:24:10;;;;;;;17.03;5.10;;;;;;;-144.59;100.00;63158.22;5047466;28;20247;-84
2022/10/24 04:26:41;;;;;;;17.87;5.50;;;;;;;-144.59;100.00;63158.22;5053362;28;20234;-84
2022/10/24 04:29:11;;;;;;;21.17;4.80;;;;;;;-144.59;100.00;63158.22;5063911;28;20205;-84
2022/10/24 04:31:44;;;;;;;17.27;5.00;;;;;;;-144.59;100.00;63158.22;5070615;28;20204;-84
2022/10/24 04:34:12;;;;;;;17.50;4.73;;;;;;;-144.59;100.00;63158.22;5070433;28;20646;-84
2022/10/24 04:36:41;;;;;;;11.33;4.80;;;;;;;-144.59;100.00;63158.22;5069270;28;20212;-84
2022/10/24 04:39:11;;;;;;;11.97;4.80;;;;;;;-144.59;100.00;63158.22;5065485;28;20238;-84
2022/10/24 04:41:40;;;;;;;12.03;5.10;;;;;;;-144.59;100.00;63158.22;5050579;28;20632;-85
2022/10/24 04:44:09;;;;;;;17.90;5.70;;;;;;;-144.59;100.00;63158.22;5068996;28;20195;-84
2022/10/24 04:46:37;;;;;;;10.70;4.73;;;;;;;-144.59;100.00;63158.22;5067213;28;20193;-85
2022/10/24 04:49:06;;;;;;;16.03;5.27;;;;;;;-144.59;100.00;63158.22;5067402;28;20210;-84
2022/10/24 04:51:36;;;;;;;10.57;4.63;;;;;;;-144.59;100.00;63158.22;5073658;28;20196;-84
2022/10/24 04:54:06;;;;;;;14.00;5.30;;;;;;;-144.59;100.00;63158.22;5066894;28;20205;-84
2022/10/24 04:56:36;;;;;;;13.17;5.20;;;;;;;-144.59;100.00;63158.22;5037874;28;20212;-84
2022/10/24 04:59:05;;;;;;;12.60;5.00;;;;;;;-144.59;100.00;63158.22;5068661;28;20192;-85
2022/10/24 05:01:34;;;;;;;11.27;4.80;;;;;;;-144.59;100.00;63158.22;5069554;28;20200;-84
2022/10/24 05:04:03;;;;;;;12.20;5.60;;;;;;;-144.59;100.00;63158.22;5004613;28;20610;-84
2022/10/24 05:06:31;;;;;;;12.93;4.67;;;;;;;-144.59;100.00;63158.22;5005773;28;20256;-84
2022/10/24 05:08:59;;;;;;;16.77;5.47;;;;;;;-144.59;100.00;63158.22;5004425;28;20202;-84
2022/10/24 05:11:28;;;;;;;12.50;5.43;;;;;;;-144.59;100.00;63158.22;5011643;28;20197;-85
2022/10/24 05:13:59;;;;;;;14.07;5.60;;;;;;;-144.59;100.00;63158.22;4999213;28;20229;-84
2022/10/24 05:16:31;;;;;;;14.40;5.20;;;;;;;-144.59;100.00;63158.22;4967692;28;20848;-84
2022/10/24 05:19:03;;;;;;;14.80;5.50;;;;;;;-144.59;100.00;63158.22;4969770;28;20215;-84
2022/10/24 05:21:31;;;;;;;16.90;6.13;;;;;;;-144.59;100.00;63158.22;4953681;28;20360;-84
2022/10/24 05:24:00;;;;;;;14.77;6.20;;;;;;;-144.59;100.00;63158.22;4977118;28;20203;-84
2022/10/24 05:26:30;;;;;;;21.00;6.30;;;;;;;-144.59;100.00;63158.22;4984132;28;20205;-84
2022/10/24 05:29:04;;;;;;;17.93;5.53;;;;;;;-144.59;100.00;63158.22;4985889;28;20318;-84
2022/10/24 05:31:32;;;;;;;14.47;5.90;;;;;;;-144.59;100.00;63158.22;4985878;28;20348;-84
2022/10/24 05:34:01;;;;;;;14.50;5.60;;;;;;;-144.59;100.00;63158.22;4996560;28;20201;-84
2022/10/24 05:36:31;;;;;;;17.43;6.13;;;;;;;-144.59;100.00;63158.22;5063647;28;20216;-84
2022/10/24 05:39:04;;;;;;;13.83;6.27;;;;;;;-144.59;100.00;63158.22;5006587;28;20206;-84
2022/10/24 05:41:33;;;;;;;13.17;5.60;;;;;;;-144.59;100.00;63158.22;4928934;29;20205;-84
2022/10/24 05:44:04;;;;;;;17.87;5.33;;;;;;;-144.59;100.00;63158.22;4927543;29;20244;-84
2022/10/24 05:46:32;;;;;;;16.07;5.60;;;;;;;-144.59;100.00;63158.22;4932921;29;20283;-84
2022/10/24 05:49:03;;;;;;;13.30;5.77;;;;;;;-144.59;100.00;63158.22;4930027;29;20201;-84
2022/10/24 05:51:32;;;;;;;13.70;5.63;;;;;;;-144.59;100.00;63158.22;4891326;29;20258;-84
2022/10/24 05:54:00;;;;;;;14.50;5.70;;;;;;;-144.59;100.00;63158.22;4890123;29;20210;-84
2022/10/24 05:56:31;;;;;;;14.60;5.47;;;;;;;-144.59;100.00;63158.22;4900182;29;20204;-84
2022/10/24 05:58:59;;;;;;;14.80;5.93;;;;;;;-144.59;100.00;63158.22;4908770;28;20357;-86
2022/10/24 06:01:33;;;;;;;15.40;5.80;;;;;;;-144.59;100.00;63158.22;4961313;28;20263;-84
2022/10/24 06:04:04;;;;;;;15.37;6.10;;;;;;;-144.59;100.00;63158.22;4967307;28;20251;-84
2022/10/24 06:06:39;;;;;;;14.70;5.60;;;;;;;-144.59;100.00;63158.22;4893366;29;20241;-84
2022/10/24 06:09:08;;;;;;;21.10;5.93;;;;;;;-144.59;100.00;63158.22;4893168;29;20241;-84
2022/10/24 06:11:37;;;;;;;13.60;5.00;;;;;;;-144.59;100.00;63158.22;4855954;29;20325;-84
2022/10/24 06:14:06;;;;;;;13.10;5.13;;;;;;;-144.59;100.00;63158.22;4804081;29;20210;-84
2022/10/24 06:16:38;;;;;;;17.50;5.90;;;;;;;-144.59;100.00;63158.22;4837649;29;20295;-84
2022/10/24 06:19:08;;;;;;;13.67;5.33;;;;;;;-144.59;100.00;63158.22;4852591;29;20246;-84
2022/10/24 06:21:37;;;;;;;16.73;5.60;;;;;;;-144.59;100.00;63158.22;4803878;29;20208;-84
2022/10/24 06:24:06;;;;;;;15.37;5.17;;;;;;;-144.59;100.00;63158.22;4799435;29;20237;-84
2022/10/24 06:26:34;;;;;;;11.90;5.50;;;;;;;-144.59;100.00;63158.22;4797791;29;20273;-84
2022/10/24 06:29:04;;;;;;;14.10;5.40;;;;;;;-144.59;100.00;63158.22;4822917;29;20215;-84
2022/10/24 06:31:34;;;;;;;15.40;5.17;;;;;;;-144.59;100.00;63158.22;4873904;29;20267;-83
2022/10/24 06:34:04;;;;;;;17.37;5.63;;;;;;;-144.59;100.00;63158.22;4893112;29;20719;-85
2022/10/24 06:36:34;;;;;;;15.70;5.27;;;;;;;-144.59;100.00;63158.22;4896028;29;20198;-85
2022/10/24 06:39:07;;;;;;;14.37;5.40;;;;;;;-144.59;100.00;63158.22;4949589;29;20240;-85
2022/10/24 06:41:37;;;;;;;13.83;5.13;;;;;;;-144.59;100.00;63158.22;4953975;29;20191;-85
2022/10/24 06:44:06;;;;;;;14.50;4.97;;;;;;;-144.59;100.00;63158.22;4958196;28;20666;-84
2022/10/24 06:46:38;;;;;;;16.60;5.40;;;;;;;-144.59;100.00;63158.22;4994681;28;20195;-84
2022/10/24 06:49:08;;;;;;;15.17;5.33;;;;;;;-144.59;100.00;63158.22;4989006;28;20257;-84
2022/10/24 06:51:37;;;;;;;17.70;5.20;;;;;;;-144.59;100.00;63158.22;4988794;28;20650;-84
2022/10/24 06:54:06;;;;;;;17.90;5.73;;;;;;;-144.59;100.00;63158.22;5058409;28;20200;-84
2022/10/24 06:56:35;;;;;;;14.40;5.47;;;;;;;-144.59;100.00;63158.22;5069322;28;20245;-84
2022/10/24 06:59:09;;;;;;;17.90;5.70;;;;;;;-144.59;100.00;63158.22;5065398;28;20732;-84
2022/10/24 07:01:37;;;;;;;14.77;5.17;;;;;;;-144.59;100.00;63158.22;5074606;28;20200;-85
2022/10/24 07:04:09;;;;;;;18.30;5.00;;;;;;;-144.59;100.00;63158.22;5068228;28;20224;-84
2022/10/24 07:06:38;;;;;;;15.20;5.07;;;;;;;-144.59;100.00;63158.22;5071618;28;20204;-84
2022/10/24 07:09:06;;;;;;;15.13;5.10;;;;;;;-144.59;100.00;63158.22;5067185;28;20230;-85
2022/10/24 07:11:41;;;;;;;16.60;5.67;;;;;;;-144.59;100.00;63158.22;5071427;28;20269;-84
2022/10/24 07:14:13;;;;;;;12.43;5.10;;;;;;;-144.59;100.00;63158.22;5068943;28;20200;-84
2022/10/24 07:16:41;;;;;;;13.17;5.03;;;;;;;-144.59;100.00;63158.22;5069103;28;20310;-85
2022/10/24 07:19:13;;;;;;;14.03;5.47;;;;;;;-144.59;100.00;63158.22;5066277;28;20231;-84
2022/10/24 07:21:41;;;;;;;13.80;4.67;;;;;;;-144.59;100.00;63158.22;5071222;28;20211;-84
2022/10/24 07:24:12;;;;;;;14.53;4.90;;;;;;;-144.59;100.00;63158.22;5070736;28;20203;-84
2022/10/24 07:26:41;;;;;;;16.13;5.57;;;;;;;-144.59;100.00;63158.22;5068591;28;20223;-84
2022/10/24 07:29:10;;;;;;;16.40;5.03;;;;;;;-144.59;100.00;63158.22;5066768;28;20663;-84
2022/10/24 07:31:39;;;;;;;11.00;5.10;;;;;;;-144.59;100.00;63158.22;5074880;28;20640;-84
2022/10/24 07:34:09;;;;;;;15.17;5.23;;;;;;;-144.59;100.00;63158.22;5069226;28;20192;-84
2022/10/24 07:36:42;;;;;;;15.80;5.57;;;;;;;-144.59;100.00;63158.22;5073988;28;20662;-82
2022/10/24 07:39:18;;;;;;;11.97;5.20;;;;;;;-144.59;100.00;63158.22;5033249;28;20216;-84
2022/10/24 07:41:46;;;;;;;12.40;5.50;;;;;;;-144.59;100.00;63158.22;5069566;28;20184;-84
2022/10/24 07:44:15;;;;;;;13.77;5.33;;;;;;;-144.59;100.00;63158.22;5067002;28;20207;-83
2022/10/24 07:46:43;;;;;;;14.30;5.60;;;;;;;-144.59;100.00;63158.22;5069381;28;20288;-83
2022/10/24 07:49:12;;;;;;;15.33;5.80;;;;;;;-144.59;100.00;63158.22;5034731;28;20242;-84
2022/10/24 07:51:43;;;;;;;15.90;5.77;;;;;;;-144.59;100.00;63158.22;5067681;28;20204;-85
2022/10/24 07:54:11;;;;;;;20.70;5.83;;;;;;;-144.59;100.00;63158.22;5069752;28;20263;-84
2022/10/24 07:56:40;;;;;;;15.10;5.07;;;;;;;-144.59;100.00;63158.22;5080479;28;20236;-84
2022/10/24 07:59:09;;;;;;;11.90;5.10;;;;;;;-144.59;100.00;63158.22;5073837;28;20301;-84
2022/10/24 08:01:57;;;;;;;13.30;4.93;;;;;;;-144.59;100.00;63158.22;5081608;28;20232;-84
2022/10/24 08:04:27;;;;;;;16.00;5.90;;;;;;;-144.59;100.00;63158.22;5028769;28;20201;-86
2022/10/24 08:07:02;;;;;;;44.03;9.10;;;;;;;-144.59;100.00;63158.22;5022278;28;20259;-88
2022/10/24 08:09:31;;;;;;;16.13;4.90;;;;;;;-144.59;100.00;63158.22;5030817;28;20692;-84
2022/10/24 08:12:00;;;;;;;14.33;5.27;;;;;;;-144.59;100.00;63158.22;5026775;28;20221;-83
2022/10/24 08:14:28;;;;;;;12.73;5.00;;;;;;;-144.59;100.00;63158.22;5028049;28;20244;-83
2022/10/24 08:16:58;;;;;;;12.77;4.43;;;;;;;-144.59;100.00;63158.22;4977927;28;20229;-84
2022/10/24 08:19:27;;;;;;;13.57;4.63;;;;;;;-144.59;100.00;63158.22;5029391;28;20236;-82
2022/10/24 08:21:55;;;;;;;10.40;4.97;;;;;;;-144.59;100.00;63158.22;5019643;28;20244;-83
2022/10/24 08:24:25;;;;;;;15.83;5.10;;;;;;;-144.59;100.00;63158.22;5027027;28;20201;-83
2022/10/24 08:26:55;;;;;;;12.40;4.40;;;;;;;-144.59;100.00;63158.22;5032368;28;20194;-84
2022/10/24 08:29:25;;;;;;;12.23;4.60;;;;;;;-144.59;100.00;63158.22;5054230;28;20708;-83
2022/10/24 08:31:55;;;;;;;14.23;4.53;;;;;;;-144.59;100.00;63158.22;5008978;28;20187;-83
2022/10/24 08:34:26;;;;;;;12.53;4.27;;;;;;;-144.59;100.00;63158.22;5007658;28;20199;-83
2022/10/24 08:36:55;;;;;;;10.17;4.27;;;;;;;-144.59;100.00;63158.22;5009989;28;20661;-84
2022/10/24 08:39:26;;;;;;;13.73;4.13;;;;;;;-144.59;100.00;63158.22;4949618;29;20220;-84
2022/10/24 08:41:59;;;;;;;16.03;4.67;;;;;;;-144.59;100.00;63158.22;4944788;29;20201;-84
2022/10/24 08:44:30;;;;;;;14.70;4.57;;;;;;;-144.59;100.00;63158.22;4944870;29;20197;-83
2022/10/24 08:47:07;;;;;;;18.40;4.47;;;;;;;-144.59;100.00;63158.22;4950768;29;20200;-83
2022/10/24 08:49:42;;;;;;;13.40;4.33;;;;;;;-144.59;100.00;63158.22;4896209;29;20202;-80
2022/10/24 08:52:28;;;;;;;13.73;4.57;;;;;;;-144.59;100.00;63158.22;4839926;29;20200;-84
2022/10/24 08:55:00;;;;;;;18.07;4.57;;;;;;;-144.59;100.00;63158.22;4837878;29;20204;-84
2022/10/24 08:57:35;;;;;;;10.57;4.03;;;;;;;-144.59;100.00;63158.22;4853085;29;20207;-84
2022/10/24 09:00:19;;;;;;;10.93;3.83;;;;;;;-144.59;100.00;63158.22;4872203;29;20223;-83
2022/10/24 09:02:52;;;;;;;9.83;4.10;;;;;;;-144.59;100.00;63158.22;4905076;29;20212;-84
2022/10/24 09:05:25;;;;;;;14.23;4.13;;;;;;;-144.59;100.00;63158.22;4949206;29;20228;-82
2022/10/24 09:08:03;;;;;;;13.83;4.63;;;;;;;-144.59;100.00;63158.22;4992327;28;20197;-84
2022/10/24 09:10:42;;;;;;;16.93;4.30;;;;;;;-144.59;100.00;63158.22;5023960;28;20201;-83
2022/10/24 09:13:15;;;;;;;10.33;4.13;;;;;;;-144.59;100.00;63158.22;5025005;28;20256;-83
2022/10/24 09:15:46;;;;;;;13.87;4.33;;;;;;;-144.59;100.00;63158.22;4950325;28;20197;-83
2022/10/24 09:18:21;;;;;;;14.57;4.40;;;;;;;-144.59;100.00;63158.22;5005439;28;20218;-83
2022/10/24 09:20:52;;;;;;;13.90;4.23;;;;;;;-144.59;100.00;63158.22;5008129;28;20186;-83
2022/10/24 09:23:24;;;;;;;17.40;3.97;;;;;;;-144.59;100.00;63158.22;5008785;28;20202;-82
2022/10/24 09:25:58;;;;;;;17.93;4.10;;;;;;;-144.59;100.00;63158.22;5008187;28;20233;-83
2022/10/24 09:28:27;;;;;;;20.33;4.80;;;;;;;-144.59;100.00;63158.22;5006068;28;20200;-83
2022/10/24 09:30:55;;;;;;;15.23;4.27;;;;;;;-144.59;100.00;63158.22;5008880;28;20273;-83
2022/10/24 09:33:31;;;;;;;12.63;4.17;;;;;;;-144.59;100.00;63158.22;5006180;28;20221;-83
2022/10/24 09:36:06;;;;;;;10.23;3.53;;;;;;;-144.59;100.00;63158.22;5008695;28;20253;-83
2022/10/24 09:38:36;;;;;;;11.33;4.60;;;;;;;-144.59;100.00;63158.22;5007468;28;20771;-83
2022/10/24 09:41:16;;;;;;;15.17;4.10;;;;;;;-144.59;100.00;63158.22;5057390;28;20241;-83
2022/10/24 09:43:49;;;;;;;10.77;4.30;;;;;;;-144.59;100.00;63158.22;5071564;28;20203;-82
2022/10/24 09:46:25;;;;;;;12.53;3.90;;;;;;;-144.59;100.00;63158.22;5071863;28;20196;-83
2022/10/24 09:48:59;;;;;;;13.33;3.90;;;;;;;-144.59;100.00;63158.22;5067336;28;20196;-83
2022/10/24 09:51:34;;;;;;;15.67;4.63;;;;;;;-144.59;100.00;63158.22;5030096;28;20247;-83
2022/10/24 09:54:08;;;;;;;10.90;3.90;;;;;;;-144.59;100.00;63158.22;4969715;28;20196;-82
2022/10/24 09:56:42;;;;;;;9.10;4.20;;;;;;;-144.59;100.00;63158.22;4957970;28;20255;-82
2022/10/24 09:59:28;;;;;;;14.20;4.10;;;;;;;-144.59;100.00;63158.22;4933865;28;20379;-82
2022/10/24 10:02:17;;;;;;;10.30;3.63;;;;;;;-144.59;100.00;63158.22;4968199;28;20219;-82
2022/10/24 10:04:49;;;;;;;11.80;4.50;;;;;;;-144.59;100.00;63158.22;4972095;28;20320;-83
2022/10/24 10:07:20;;;;;;;17.23;4.33;;;;;;;-144.59;100.00;63158.22;4963153;28;20203;-82
2022/10/24 10:09:52;;;;;;;17.70;4.43;;;;;;;-144.59;100.00;63158.22;4990772;28;20249;-82
2022/10/24 10:12:33;;;;;;;18.13;4.13;;;;;;;-144.59;100.00;63158.22;5012553;28;20218;-83
2022/10/24 10:15:17;;;;;;;16.40;4.07;;;;;;;-144.59;100.00;63158.22;5007356;28;20208;-82
2022/10/24 10:17:50;;;;;;;16.00;3.73;;;;;;;-144.59;100.00;63158.22;5017018;28;20190;-83
2022/10/24 10:20:25;;;;;;;10.73;3.83;;;;;;;-144.59;100.00;63158.22;5071302;28;20212;-82
2022/10/24 10:22:54;;;;;;;14.40;3.73;;;;;;;-144.59;100.00;63158.22;5075016;28;20310;-82
2022/10/24 10:25:30;;;;;;;11.90;3.70;;;;;;;-144.59;100.00;63158.22;5070463;28;20192;-82
2022/10/24 10:28:00;;;;;;;13.47;3.80;;;;;;;-144.59;100.00;63158.22;5075395;28;20211;-82
2022/10/24 10:30:33;;;;;;;12.23;4.17;;;;;;;-144.59;100.00;63158.22;5071121;28;20200;-82
2022/10/24 10:33:12;;;;;;;14.20;3.60;;;;;;;-144.59;100.00;63158.22;5076164;28;20276;-82
2022/10/24 10:35:50;;;;;;;11.70;4.10;;;;;;;-144.59;100.00;63158.22;5068996;28;20665;-83
2022/10/24 10:38:47;;;;;;;11.17;3.90;;;;;;;-144.59;100.00;63158.22;5071101;28;20192;-82
2022/10/24 10:41:27;;;;;;;9.73;3.70;;;;;;;-144.59;100.00;63158.22;5076046;28;20247;-82
2022/10/24 10:44:10;;;;;;;17.57;4.60;;;;;;;-144.59;100.00;63158.22;5066322;28;20204;-83
2022/10/24 10:46:49;;;;;;;16.73;4.97;;;;;;;-144.59;100.00;63158.22;5073464;28;20192;-83
2022/10/24 10:49:25;;;;;;;14.20;3.60;;;;;;;-144.59;100.00;63158.22;5047214;28;20247;-82
2022/10/24 10:51:58;;;;;;;13.20;3.53;;;;;;;-144.59;100.00;63158.22;5048840;28;20252;-83
2022/10/24 10:54:51;;;;;;;10.37;3.47;;;;;;;-144.59;100.00;63158.22;5048877;28;20688;-83
2022/10/24 10:57:22;;;;;;;14.07;3.63;;;;;;;-144.59;100.00;63158.22;5052120;28;20243;-83
2022/10/24 11:00:06;;;;;;;13.90;4.30;;;;;;;-144.59;100.00;63158.22;5048768;28;20228;-83
2022/10/24 11:02:47;;;;;;;13.40;3.30;;;;;;;-144.59;100.00;63158.22;5045638;28;20189;-83
2022/10/24 11:05:36;;;;;;;13.63;3.90;;;;;;;-144.59;100.00;63158.22;5048284;28;20192;-83
2022/10/24 11:08:14;;;;;;;15.70;4.30;;;;;;;-144.59;100.00;63158.22;5054579;28;20646;-83
2022/10/24 11:10:51;;;;;;;11.67;3.37;;;;;;;-144.59;100.00;63158.22;5037084;28;20709;-82
2022/10/24 11:13:27;;;;;;;12.70;3.80;;;;;;;-144.59;100.00;63158.22;5067258;28;20216;-82
2022/10/24 11:16:10;;;;;;;10.33;3.60;;;;;;;-144.59;100.00;63158.22;5070892;28;20200;-83
2022/10/24 11:18:42;;;;;;;9.77;3.33;;;;;;;-144.59;100.00;63158.22;5067276;28;20227;-82
2022/10/24 11:21:13;;;;;;;13.10;4.03;;;;;;;-144.59;100.00;63158.22;5069407;28;20740;-82
2022/10/24 11:23:47;;;;;;;11.37;3.43;;;;;;;-144.59;100.00;63158.22;5069635;28;20204;-82
2022/10/24 11:26:22;;;;;;;14.50;3.47;;;;;;;-144.59;100.00;63158.22;5074103;28;20192;-82
2022/10/24 11:28:59;;;;;;;13.33;3.80;;;;;;;-144.59;100.00;63158.22;5070736;28;20192;-82